createdAt,value
2017-07-02T00:02:02.510Z,95.90
2017-07-02T00:04:28.531Z,95.80
2017-07-02T00:06:54.545Z,95.70
2017-07-02T00:09:20.592Z,95.60
2017-07-02T00:11:46.608Z,95.60
2017-07-02T00:14:12.631Z,95.60
2017-07-02T00:16:38.653Z,95.70
2017-07-02T00:19:04.749Z,95.70
2017-07-02T00:21:30.783Z,95.60
2017-07-02T00:23:57.557Z,95.60
2017-07-02T00:26:23.573Z,96.00
2017-07-02T00:28:49.656Z,95.60
2017-07-02T00:31:15.741Z,95.50
2017-07-02T00:36:39.479Z,95.60
2017-07-02T00:39:05.540Z,95.40
2017-07-02T00:41:31.681Z,95.50
2017-07-02T00:43:57.809Z,95.90
2017-07-02T00:46:23.856Z,95.50
2017-07-02T00:48:49.875Z,95.50
2017-07-02T00:51:15.905Z,95.50
2017-07-02T00:53:41.899Z,95.40
2017-07-02T00:56:07.915Z,95.40
2017-07-02T00:58:33.928Z,95.40
2017-07-02T01:00:59.996Z,95.40
2017-07-02T01:03:26.004Z,95.40
2017-07-02T01:05:52.024Z,95.30
2017-07-02T01:08:18.032Z,95.20
2017-07-02T01:10:44.093Z,95.20
2017-07-02T01:13:10.085Z,95.20
2017-07-02T01:15:36.190Z,95.20
2017-07-02T01:18:02.226Z,95.10
2017-07-02T01:20:28.263Z,95.10
2017-07-02T01:22:54.314Z,95.00
2017-07-02T01:28:28.712Z,94.70
2017-07-02T01:30:54.722Z,94.90
2017-07-02T01:33:21.487Z,95.00
2017-07-02T01:35:47.505Z,95.00
2017-07-02T01:38:13.543Z,95.10
2017-07-02T01:40:39.628Z,95.00
2017-07-02T01:43:05.682Z,95.00
2017-07-02T01:45:31.718Z,94.90
2017-07-02T01:47:58.455Z,94.90
2017-07-02T01:50:24.611Z,94.90
2017-07-02T01:52:50.627Z,94.70
2017-07-02T01:55:17.409Z,94.70
2017-07-02T01:57:43.445Z,94.70
2017-07-02T02:00:09.530Z,94.70
2017-07-02T02:02:47.939Z,94.60
2017-07-02T02:05:14.696Z,94.60
2017-07-02T02:07:40.697Z,94.60
2017-07-02T02:10:06.704Z,94.60
2017-07-02T02:12:32.711Z,94.60
2017-07-02T02:14:58.742Z,94.70
2017-07-02T02:17:24.758Z,94.70
2017-07-02T02:19:50.901Z,94.50
2017-07-02T02:22:17.003Z,94.30
2017-07-02T02:24:43.038Z,94.20
2017-07-02T02:27:09.081Z,94.10
2017-07-02T02:29:35.071Z,94.10
2017-07-02T02:32:01.109Z,94.10
2017-07-02T02:34:27.895Z,94.10
2017-07-02T02:36:53.949Z,94.10
2017-07-02T02:39:19.979Z,94.10
2017-07-02T02:41:46.011Z,94.00
2017-07-02T02:44:12.106Z,94.00
2017-07-02T02:46:38.131Z,94.00
2017-07-02T02:49:04.202Z,93.90
2017-07-02T02:51:30.251Z,93.60
2017-07-02T02:53:56.249Z,93.40
2017-07-02T02:56:22.388Z,93.30
2017-07-02T02:58:48.439Z,92.80
2017-07-02T03:01:14.463Z,92.50
2017-07-02T03:03:40.492Z,92.60
2017-07-02T03:06:06.497Z,92.50
2017-07-02T03:08:32.552Z,92.50
2017-07-02T03:10:58.655Z,92.70
2017-07-02T03:13:24.655Z,92.30
2017-07-02T03:15:50.645Z,92.30
2017-07-02T03:18:16.694Z,92.30
2017-07-02T03:20:43.463Z,92.10
2017-07-02T03:23:09.544Z,92.10
2017-07-02T03:25:35.556Z,92.20
2017-07-02T03:28:01.587Z,92.30
2017-07-02T03:30:27.599Z,92.40
2017-07-02T03:32:53.636Z,92.20
2017-07-02T03:35:19.635Z,92.20
2017-07-02T03:37:45.639Z,92.30
2017-07-02T03:40:11.677Z,92.40
2017-07-02T03:42:38.422Z,92.70
2017-07-02T03:45:05.449Z,92.40
2017-07-02T03:47:31.483Z,92.30
2017-07-02T03:49:57.508Z,92.10
2017-07-02T03:52:23.503Z,91.80
2017-07-02T03:54:49.584Z,91.80
2017-07-02T03:57:16.337Z,91.60
2017-07-02T03:59:42.340Z,91.60
2017-07-02T04:02:08.351Z,91.60
2017-07-02T04:04:34.349Z,91.70
2017-07-02T04:07:00.354Z,91.70
2017-07-02T04:09:27.088Z,91.90
2017-07-02T04:11:53.099Z,91.90
2017-07-02T04:14:19.095Z,92.00
2017-07-02T04:16:45.119Z,92.00
2017-07-02T04:19:11.100Z,92.10
2017-07-02T04:21:37.914Z,92.70
2017-07-02T04:24:03.979Z,92.40
2017-07-02T04:26:29.967Z,92.50
2017-07-02T04:28:56.022Z,92.70
2017-07-02T04:31:22.051Z,92.60
2017-07-02T04:33:48.049Z,92.60
2017-07-02T04:36:14.086Z,92.60
2017-07-02T04:38:40.098Z,92.60
2017-07-02T04:41:06.121Z,92.50
2017-07-02T04:43:32.165Z,92.20
2017-07-02T04:45:58.159Z,92.00
2017-07-02T04:48:24.220Z,91.80
2017-07-02T04:50:50.211Z,91.40
2017-07-02T04:53:16.998Z,91.00
2017-07-02T04:55:43.005Z,91.00
2017-07-02T04:58:09.003Z,90.70
2017-07-02T05:00:35.787Z,90.30
2017-07-02T05:03:01.775Z,90.30
2017-07-02T05:05:27.812Z,90.50
2017-07-02T05:07:53.808Z,90.70
2017-07-02T05:10:19.851Z,90.90
2017-07-02T05:12:45.855Z,91.10
2017-07-02T05:15:11.870Z,91.30
2017-07-02T05:17:37.913Z,91.20
2017-07-02T05:20:03.924Z,91.30
2017-07-02T05:22:29.924Z,91.20
2017-07-02T05:24:56.709Z,90.90
2017-07-02T05:27:22.703Z,90.90
2017-07-02T05:29:48.695Z,90.90
2017-07-02T05:32:14.732Z,90.70
2017-07-02T05:34:40.731Z,90.80
2017-07-02T05:37:06.747Z,90.90
2017-07-02T05:39:32.741Z,90.80
2017-07-02T05:41:59.492Z,91.20
2017-07-02T05:44:26.225Z,90.70
2017-07-02T05:46:52.236Z,90.70
2017-07-02T05:49:18.244Z,90.60
2017-07-02T05:51:44.274Z,90.60
2017-07-02T05:54:10.272Z,90.60
2017-07-02T05:56:36.275Z,90.70
2017-07-02T05:59:02.308Z,90.80
2017-07-02T06:01:29.135Z,90.40
2017-07-02T06:03:55.141Z,90.40
2017-07-02T06:06:21.131Z,90.30
2017-07-02T06:08:47.140Z,89.80
2017-07-02T06:11:13.148Z,89.80
2017-07-02T06:13:39.167Z,90.20
2017-07-02T06:16:13.794Z,90.10
2017-07-02T06:18:39.893Z,89.70
2017-07-02T06:21:05.903Z,89.60
2017-07-02T06:23:31.964Z,89.40
2017-07-02T06:25:57.999Z,89.50
2017-07-02T06:28:24.019Z,89.00
2017-07-02T06:30:50.044Z,89.10
2017-07-02T06:33:16.058Z,89.10
2017-07-02T06:35:42.072Z,89.40
2017-07-02T06:38:08.077Z,89.30
2017-07-02T06:40:34.144Z,89.00
2017-07-02T06:43:00.139Z,89.00
2017-07-02T06:45:26.883Z,88.30
2017-07-02T06:47:52.903Z,88.20
2017-07-02T06:50:19.010Z,88.00
2017-07-02T06:52:45.037Z,88.20
2017-07-02T06:55:11.087Z,88.40
2017-07-02T06:57:37.112Z,88.50
2017-07-02T07:00:03.124Z,88.30
2017-07-02T07:02:29.157Z,87.50
2017-07-02T07:04:57.248Z,87.70
2017-07-02T07:07:23.263Z,86.40
2017-07-02T07:09:49.279Z,86.20
2017-07-02T07:12:15.308Z,85.60
2017-07-02T07:14:41.330Z,85.10
2017-07-02T07:17:07.421Z,84.80
2017-07-02T07:19:34.233Z,84.30
2017-07-02T07:22:26.333Z,84.20
2017-07-02T07:25:00.001Z,83.60
2017-07-02T07:27:26.769Z,84.10
2017-07-02T07:29:52.819Z,84.10
2017-07-02T07:32:18.849Z,83.50
2017-07-02T07:34:57.133Z,83.10
2017-07-02T07:37:23.145Z,82.70
2017-07-02T07:39:49.924Z,81.50
2017-07-02T07:42:15.955Z,81.50
2017-07-02T07:44:43.985Z,80.90
2017-07-02T07:47:10.019Z,80.80
2017-07-02T07:49:36.791Z,80.70
2017-07-02T07:52:02.864Z,80.50
2017-07-02T07:54:28.902Z,80.70
2017-07-02T07:56:54.989Z,80.40
2017-07-02T07:59:21.070Z,78.90
2017-07-02T08:01:48.202Z,79.40
2017-07-02T08:04:14.227Z,79.10
2017-07-02T08:06:40.261Z,79.30
2017-07-02T08:09:10.452Z,77.90
2017-07-02T08:11:36.496Z,78.30
2017-07-02T08:14:02.515Z,78.80
2017-07-02T08:16:28.537Z,77.00
2017-07-02T08:18:54.587Z,76.10
2017-07-02T08:21:20.694Z,76.50
2017-07-02T08:23:46.748Z,75.10
2017-07-02T08:26:27.495Z,75.60
2017-07-02T08:28:53.550Z,74.80
2017-07-02T08:31:19.642Z,74.20
2017-07-02T08:33:45.652Z,73.80
2017-07-02T08:36:11.663Z,74.10
2017-07-02T08:38:37.703Z,73.80
2017-07-02T08:41:03.707Z,72.60
2017-07-02T08:43:29.753Z,72.90
2017-07-02T08:45:55.787Z,73.30
2017-07-02T08:48:21.962Z,72.10
2017-07-02T08:50:48.090Z,72.20
2017-07-02T08:53:14.080Z,71.80
2017-07-02T08:55:40.109Z,70.80
2017-07-02T08:58:07.225Z,71.10
2017-07-02T09:00:33.271Z,71.00
2017-07-02T09:02:59.884Z,70.80
2017-07-02T09:05:25.919Z,70.70
2017-07-02T09:07:51.964Z,70.60
2017-07-02T09:10:18.019Z,70.00
2017-07-02T09:12:44.045Z,68.40
2017-07-02T09:15:10.130Z,68.90
2017-07-02T09:17:36.200Z,68.80
2017-07-02T09:20:02.237Z,68.40
2017-07-02T09:22:28.314Z,67.20
2017-07-02T09:24:54.370Z,67.70
2017-07-02T09:27:20.419Z,67.80
2017-07-02T09:29:46.572Z,67.00
2017-07-02T09:32:13.356Z,66.90
2017-07-02T09:34:39.395Z,66.70
2017-07-02T09:37:05.441Z,65.30
2017-07-02T09:39:31.479Z,65.50
2017-07-02T09:41:57.571Z,65.60
2017-07-02T09:44:23.572Z,65.80
2017-07-02T09:46:50.341Z,63.10
2017-07-02T09:49:17.104Z,62.10
2017-07-02T09:51:43.199Z,62.10
2017-07-02T09:54:09.999Z,61.90
2017-07-02T09:56:36.078Z,61.80
2017-07-02T09:59:02.838Z,59.90
2017-07-02T10:01:29.597Z,58.50
2017-07-02T10:03:55.645Z,58.40
2017-07-02T10:06:21.626Z,58.70
2017-07-02T10:08:47.707Z,59.40
2017-07-02T10:11:19.613Z,60.00
2017-07-02T10:13:46.941Z,60.50
2017-07-02T10:16:13.105Z,60.70
2017-07-02T10:18:39.129Z,61.30
2017-07-02T10:21:05.247Z,59.60
2017-07-02T10:23:31.290Z,60.40
2017-07-02T10:25:57.309Z,60.10
2017-07-02T10:28:23.387Z,60.50
2017-07-02T10:30:50.420Z,60.20
2017-07-02T10:33:16.419Z,61.00
2017-07-02T10:35:42.461Z,62.20
2017-07-02T10:38:12.118Z,61.60
2017-07-02T10:40:38.256Z,62.00
2017-07-02T10:43:04.359Z,62.20
2017-07-02T10:45:34.887Z,62.10
2017-07-02T10:48:17.012Z,62.80
2017-07-02T10:50:43.164Z,62.60
2017-07-02T10:53:19.695Z,60.60
2017-07-02T10:55:52.130Z,59.50
2017-07-02T10:58:29.369Z,59.40
2017-07-02T11:00:58.948Z,60.00
2017-07-02T11:03:27.168Z,59.00
2017-07-02T11:05:56.508Z,59.00
2017-07-02T11:08:29.967Z,60.10
2017-07-02T11:10:56.011Z,59.60
2017-07-02T11:13:23.205Z,59.40
2017-07-02T11:16:01.817Z,59.40
2017-07-02T11:18:28.017Z,58.10
2017-07-02T11:21:07.122Z,60.00
2017-07-02T11:23:53.499Z,59.30
2017-07-02T11:26:29.049Z,60.10
2017-07-02T11:28:55.183Z,60.00
2017-07-02T11:31:29.820Z,61.20
2017-07-02T11:34:06.290Z,62.00
2017-07-02T11:36:37.533Z,61.70
2017-07-02T11:39:09.815Z,62.30
2017-07-02T11:41:35.928Z,62.40
2017-07-02T11:44:16.599Z,61.50
2017-07-02T11:46:51.004Z,61.50
2017-07-02T11:49:24.404Z,60.90
2017-07-02T11:51:56.568Z,60.80
2017-07-02T11:54:29.872Z,57.30
2017-07-02T11:57:02.031Z,57.10
2017-07-02T11:59:35.400Z,55.40
2017-07-02T12:02:07.693Z,55.00
2017-07-02T12:04:40.104Z,54.60
2017-07-02T12:07:13.269Z,54.60
2017-07-02T12:09:46.564Z,53.60
2017-07-02T12:12:13.325Z,53.10
2017-07-02T12:14:52.357Z,53.10
2017-07-02T12:17:22.765Z,53.10
2017-07-02T12:19:51.583Z,53.60
2017-07-02T12:22:28.416Z,53.00
2017-07-02T12:24:54.601Z,52.40
2017-07-02T12:27:29.940Z,51.80
2017-07-02T12:30:09.546Z,51.20
2017-07-02T12:32:39.976Z,51.50
2017-07-02T12:35:17.268Z,51.20
2017-07-02T12:37:47.670Z,50.60
2017-07-02T12:40:13.817Z,50.60
2017-07-02T12:42:42.912Z,50.90
2017-07-02T12:45:24.557Z,51.20
2017-07-02T12:47:50.716Z,51.20
2017-07-02T12:50:31.871Z,51.20
2017-07-02T12:53:00.725Z,51.20
2017-07-02T12:55:26.853Z,51.60
2017-07-02T12:58:03.679Z,51.00
2017-07-02T13:00:35.865Z,52.40
2017-07-02T13:03:13.305Z,51.50
2017-07-02T13:05:46.698Z,51.50
2017-07-02T13:08:21.013Z,52.90
2017-07-02T13:10:47.057Z,52.60
2017-07-02T13:13:16.642Z,52.60
2017-07-02T13:15:55.955Z,53.30
2017-07-02T13:18:33.516Z,53.80
2017-07-02T13:21:04.888Z,53.70
2017-07-02T13:23:39.448Z,54.10
2017-07-02T13:26:06.634Z,54.20
2017-07-02T13:28:40.920Z,54.50
2017-07-02T13:31:10.378Z,54.90
2017-07-02T13:33:49.701Z,55.10
2017-07-02T13:36:23.016Z,55.00
2017-07-02T13:38:55.525Z,55.30
2017-07-02T13:41:27.955Z,55.60
2017-07-02T13:43:58.248Z,55.60
2017-07-02T13:46:34.564Z,55.80
2017-07-02T13:49:05.964Z,55.80
2017-07-02T13:51:39.150Z,56.20
2017-07-02T13:54:13.468Z,56.60
2017-07-02T13:56:45.185Z,57.10
2017-07-02T13:59:18.212Z,56.60
2017-07-02T14:01:44.337Z,56.90
2017-07-02T14:04:22.858Z,57.20
2017-07-02T14:06:52.244Z,57.10
2017-07-02T14:09:29.550Z,58.20
2017-07-02T14:12:00.061Z,58.20
2017-07-02T14:14:34.174Z,58.30
2017-07-02T14:17:04.709Z,58.60
2017-07-02T14:19:39.800Z,58.30
2017-07-02T14:22:12.247Z,58.30
2017-07-02T14:27:33.240Z,58.00
2017-07-02T14:32:57.791Z,58.50
2017-07-02T14:35:26.034Z,59.40
2017-07-02T14:40:50.896Z,63.20
2017-07-02T14:46:20.770Z,61.30
2017-07-02T14:48:47.877Z,62.40
2017-07-02T14:51:13.952Z,63.80
2017-07-02T14:53:41.105Z,64.30
2017-07-02T14:56:31.808Z,64.70
2017-07-02T14:59:06.294Z,65.60
2017-07-02T15:01:39.773Z,66.40
2017-07-02T15:04:09.257Z,66.30
2017-07-02T15:06:38.489Z,65.10
2017-07-02T15:09:04.700Z,64.70
2017-07-02T15:11:34.065Z,65.40
2017-07-02T15:14:03.405Z,65.70
2017-07-02T15:16:51.616Z,65.10
2017-07-02T15:19:24.250Z,65.20
2017-07-02T15:21:50.279Z,66.20
2017-07-02T15:24:16.370Z,65.40
2017-07-02T15:26:53.383Z,65.60
2017-07-02T15:29:19.469Z,65.40
2017-07-02T15:31:55.965Z,66.00
2017-07-02T15:34:21.999Z,66.00
2017-07-02T15:36:51.600Z,67.50
2017-07-02T15:39:17.641Z,66.90
2017-07-02T15:41:43.656Z,67.30
2017-07-02T15:44:09.759Z,67.60
2017-07-02T15:46:35.947Z,67.80
2017-07-02T15:49:08.169Z,68.20
2017-07-02T15:51:37.343Z,69.10
2017-07-02T15:54:10.645Z,69.00
2017-07-02T15:56:36.741Z,69.00
2017-07-02T15:59:02.781Z,69.60
2017-07-02T16:01:28.819Z,69.60
2017-07-02T16:03:54.975Z,69.30
2017-07-02T16:06:34.415Z,69.20
2017-07-02T16:09:07.876Z,69.40
2017-07-02T16:11:44.158Z,69.70
2017-07-02T16:14:14.502Z,70.30
2017-07-02T16:16:43.824Z,70.30
2017-07-02T16:19:10.120Z,70.80
2017-07-02T16:21:36.961Z,70.60
2017-07-02T16:24:03.795Z,71.10
2017-07-02T16:26:30.131Z,71.00
2017-07-02T16:28:57.063Z,70.70
2017-07-02T16:31:23.085Z,70.50
2017-07-02T16:33:49.606Z,70.80
2017-07-02T16:36:15.604Z,70.90
2017-07-02T16:38:42.366Z,71.20
2017-07-02T16:41:08.440Z,71.20
2017-07-02T16:43:34.452Z,71.30
2017-07-02T16:46:00.453Z,72.20
2017-07-02T16:48:26.486Z,71.00
2017-07-02T16:50:52.487Z,71.10
2017-07-02T16:53:18.559Z,71.10
2017-07-02T16:55:44.563Z,71.20
2017-07-02T16:58:11.435Z,72.10
2017-07-02T17:00:37.502Z,72.10
2017-07-02T17:03:03.514Z,71.70
2017-07-02T17:05:45.411Z,70.60
2017-07-02T17:08:21.896Z,71.00
2017-07-02T17:11:09.241Z,71.30
2017-07-02T17:13:44.673Z,70.80
2017-07-02T17:16:18.091Z,70.80
2017-07-02T17:19:02.360Z,70.70
2017-07-02T17:21:28.456Z,70.50
2017-07-02T17:23:55.223Z,70.60
2017-07-02T17:26:29.322Z,70.50
2017-07-02T17:29:20.537Z,70.50
2017-07-02T17:32:11.951Z,70.50
2017-07-02T17:34:38.016Z,70.40
2017-07-02T17:37:22.803Z,70.10
2017-07-02T17:39:58.301Z,69.50
2017-07-02T17:42:24.393Z,69.40
2017-07-02T17:44:55.142Z,69.60
2017-07-02T17:47:22.181Z,69.50
2017-07-02T17:49:49.000Z,70.00
2017-07-02T17:52:15.030Z,70.00
2017-07-02T17:54:41.128Z,70.20
2017-07-02T17:57:07.188Z,70.00
2017-07-02T17:59:33.239Z,70.00
2017-07-02T18:01:59.412Z,69.80
2017-07-02T18:04:25.477Z,69.70
2017-07-02T18:06:51.607Z,69.50
2017-07-02T18:09:17.630Z,69.40
2017-07-02T18:11:43.656Z,69.70
2017-07-02T18:14:09.732Z,69.60
2017-07-02T18:16:36.569Z,68.70
2017-07-02T18:19:02.657Z,68.60
2017-07-02T18:21:28.759Z,68.20
2017-07-02T18:23:54.823Z,65.20
2017-07-02T18:26:20.851Z,65.80
2017-07-02T18:28:46.879Z,65.40
2017-07-02T18:31:12.902Z,66.90
2017-07-02T18:33:38.983Z,67.90
2017-07-02T18:36:04.997Z,68.20
2017-07-02T18:38:31.083Z,68.30
2017-07-02T18:40:57.148Z,68.30
2017-07-02T18:43:23.243Z,69.20
2017-07-02T18:45:51.336Z,69.40
2017-07-02T18:48:17.355Z,70.00
2017-07-02T18:50:43.417Z,70.60
2017-07-02T18:53:09.550Z,71.10
2017-07-02T18:55:35.591Z,71.70
2017-07-02T18:58:01.650Z,72.20
2017-07-02T19:00:27.715Z,72.40
2017-07-02T19:02:53.750Z,72.10
2017-07-02T19:08:11.930Z,72.80
2017-07-02T19:10:38.177Z,72.70
2017-07-02T19:13:04.214Z,73.00
2017-07-02T19:15:30.538Z,73.40
2017-07-02T19:17:56.623Z,73.60
2017-07-02T19:20:22.705Z,73.50
2017-07-02T19:22:49.519Z,73.80
2017-07-02T19:25:16.352Z,73.70
2017-07-02T19:27:42.420Z,73.90
2017-07-02T19:30:08.632Z,73.80
2017-07-02T19:32:37.987Z,74.20
2017-07-02T19:35:04.817Z,74.30
2017-07-02T19:37:30.863Z,74.30
2017-07-02T19:40:00.737Z,74.40
2017-07-02T19:42:40.882Z,74.40
2017-07-02T19:45:07.986Z,74.60
2017-07-02T19:47:39.543Z,75.20
2017-07-02T19:50:05.619Z,75.20
2017-07-02T19:52:31.680Z,75.40
2017-07-02T19:54:57.856Z,75.40
2017-07-02T19:57:31.756Z,75.60
2017-07-02T19:59:57.805Z,75.80
2017-07-02T20:02:43.322Z,76.00
2017-07-02T20:05:15.839Z,76.00
2017-07-02T20:07:52.205Z,76.30
2017-07-02T20:10:24.680Z,76.40
2017-07-02T20:12:59.114Z,76.50
2017-07-02T20:15:43.355Z,76.50
2017-07-02T20:21:16.235Z,77.40
2017-07-02T20:23:48.702Z,77.40
2017-07-02T20:26:23.031Z,77.60
2017-07-02T20:28:52.431Z,77.80
2017-07-02T20:31:25.624Z,78.00
2017-07-02T20:34:04.882Z,78.30
2017-07-02T20:36:31.977Z,78.80
2017-07-02T20:39:10.542Z,79.10
2017-07-02T20:41:36.634Z,79.30
2017-07-02T20:44:10.260Z,80.00
2017-07-02T20:46:38.433Z,80.00
2017-07-02T20:49:19.939Z,80.40
2017-07-02T20:51:57.379Z,80.70
2017-07-02T20:54:27.917Z,81.20
2017-07-02T20:56:59.327Z,81.80
2017-07-02T20:59:35.473Z,81.20
2017-07-02T21:02:09.610Z,81.20
2017-07-02T21:04:42.836Z,81.30
2017-07-02T21:07:09.619Z,81.90
2017-07-02T21:09:42.609Z,81.70
2017-07-02T21:12:14.888Z,82.10
2017-07-02T21:14:54.198Z,82.50
2017-07-02T21:17:24.792Z,82.30
2017-07-02T21:19:58.844Z,82.20
2017-07-02T21:22:31.207Z,82.70
2017-07-02T21:24:58.591Z,83.00
2017-07-02T21:27:26.730Z,83.00
2017-07-02T21:30:01.202Z,83.70
2017-07-02T21:32:33.620Z,83.70
2017-07-02T21:35:00.737Z,83.80
2017-07-02T21:37:42.095Z,84.00
2017-07-02T21:40:17.432Z,84.20
2017-07-02T21:42:43.536Z,84.20
2017-07-02T21:45:19.328Z,85.20
2017-07-02T21:48:00.675Z,84.70
2017-07-02T21:50:27.457Z,85.10
2017-07-02T21:53:06.424Z,85.10
2017-07-02T21:55:36.893Z,85.20
2017-07-02T21:58:10.174Z,85.40
2017-07-02T22:00:43.481Z,85.30
2017-07-02T22:03:09.492Z,85.20
2017-07-02T22:05:36.261Z,85.40
2017-07-02T22:08:02.293Z,85.40
2017-07-02T22:10:28.347Z,85.40
2017-07-02T22:12:56.605Z,85.30
2017-07-02T22:15:22.627Z,85.60
2017-07-02T22:17:48.676Z,85.70
2017-07-02T22:20:14.696Z,85.70
2017-07-02T22:22:40.736Z,85.90
2017-07-02T22:25:06.769Z,86.00
2017-07-02T22:27:32.813Z,86.00
2017-07-02T22:29:58.852Z,86.20
2017-07-02T22:38:17.930Z,86.60
2017-07-02T22:40:43.975Z,86.50
2017-07-02T22:43:10.006Z,86.50
2017-07-02T22:45:36.840Z,87.10
2017-07-02T22:48:02.899Z,86.20
2017-07-02T22:50:29.682Z,86.50
2017-07-02T22:52:55.730Z,86.50
2017-07-02T22:55:21.812Z,86.50
2017-07-02T22:57:48.626Z,86.70
2017-07-02T23:00:14.764Z,86.60
2017-07-02T23:02:40.860Z,86.90
2017-07-02T23:05:06.908Z,87.20
2017-07-02T23:07:32.947Z,87.30
2017-07-02T23:09:58.997Z,87.50
2017-07-02T23:12:46.082Z,87.90
2017-07-02T23:15:12.154Z,87.80
2017-07-02T23:17:38.206Z,88.40
2017-07-02T23:20:04.298Z,88.20
2017-07-02T23:22:31.109Z,88.60
2017-07-02T23:24:57.202Z,88.60
2017-07-02T23:27:23.292Z,88.60
2017-07-02T23:29:49.338Z,88.60
2017-07-02T23:32:15.408Z,88.40
2017-07-02T23:34:41.464Z,88.60
2017-07-02T23:37:07.534Z,88.80
2017-07-02T23:39:34.332Z,89.50
2017-07-02T23:42:00.390Z,88.80
2017-07-02T23:44:26.434Z,89.30
2017-07-02T23:46:53.274Z,89.30
2017-07-02T23:49:26.386Z,89.50
2017-07-02T23:51:53.201Z,89.80
2017-07-02T23:54:19.249Z,89.70
2017-07-02T23:56:45.296Z,89.50
2017-07-02T23:59:12.102Z,90.00
